sensor_id;sensor_type;location;lat;lon;timestamp;pressure;altitude;pressure_sealevel;temperature;humidity
11223;BME280;5668;52.012;8.724;2023-05-09T00:00:37;100490.13;;;17.53;62.54
11223;BME280;5668;52.012;8.724;2023-05-09T00:03:04;100489.59;;;17.50;62.90
11223;BME280;5668;52.012;8.724;2023-05-09T00:05:31;100489.19;;;17.45;62.98
11223;BME280;5668;52.012;8.724;2023-05-09T00:07:59;100486.88;;;17.41;62.82
11223;BME280;5668;52.012;8.724;2023-05-09T00:10:27;100487.97;;;17.39;62.74
11223;BME280;5668;52.012;8.724;2023-05-09T00:12:56;100483.69;;;17.38;62.64
11223;BME280;5668;52.012;8.724;2023-05-09T00:15:23;100490.75;;;17.37;63.08
11223;BME280;5668;52.012;8.724;2023-05-09T00:17:51;100495.03;;;17.38;62.75
11223;BME280;5668;52.012;8.724;2023-05-09T00:20:22;100494.53;;;17.35;62.49
11223;BME280;5668;52.012;8.724;2023-05-09T00:22:49;100497.97;;;17.35;62.79
11223;BME280;5668;52.012;8.724;2023-05-09T00:25:16;100500.19;;;17.30;62.99
11223;BME280;5668;52.012;8.724;2023-05-09T00:27:43;100494.66;;;17.33;62.88
11223;BME280;5668;52.012;8.724;2023-05-09T00:30:12;100490.09;;;17.35;62.80
11223;BME280;5668;52.012;8.724;2023-05-09T00:32:39;100483.69;;;17.38;63.02
11223;BME280;5668;52.012;8.724;2023-05-09T00:35:07;100479.13;;;17.40;62.65
11223;BME280;5668;52.012;8.724;2023-05-09T00:37:35;100479.13;;;17.40;62.41
11223;BME280;5668;52.012;8.724;2023-05-09T00:40:05;100474.72;;;17.40;62.82
11223;BME280;5668;52.012;8.724;2023-05-09T00:42:34;100464.34;;;17.39;62.49
11223;BME280;5668;52.012;8.724;2023-05-09T00:45:02;100472.34;;;17.37;62.83
11223;BME280;5668;52.012;8.724;2023-05-09T00:47:30;100463.81;;;17.35;62.59
11223;BME280;5668;52.012;8.724;2023-05-09T00:49:58;100463.00;;;17.35;62.89
11223;BME280;5668;52.012;8.724;2023-05-09T00:52:25;100456.47;;;17.39;62.87
11223;BME280;5668;52.012;8.724;2023-05-09T00:54:53;100460.88;;;17.38;62.75
11223;BME280;5668;52.012;8.724;2023-05-09T00:57:21;100455.63;;;17.38;62.72
11223;BME280;5668;52.012;8.724;2023-05-09T00:59:48;100445.25;;;17.37;62.77
11223;BME280;5668;52.012;8.724;2023-05-09T01:02:16;100440.69;;;17.39;62.75
11223;BME280;5668;52.012;8.724;2023-05-09T01:04:46;100445.13;;;17.38;62.63
11223;BME280;5668;52.012;8.724;2023-05-09T01:07:18;100440.19;;;17.35;62.39
11223;BME280;5668;52.012;8.724;2023-05-09T01:09:54;100436.03;;;17.33;62.12
11223;BME280;5668;52.012;8.724;2023-05-09T01:12:26;100439.63;;;17.32;62.49
11223;BME280;5668;52.012;8.724;2023-05-09T01:14:59;100434.09;;;17.35;62.44
11223;BME280;5668;52.012;8.724;2023-05-09T01:17:34;100428.97;;;17.33;62.04
11223;BME280;5668;52.012;8.724;2023-05-09T01:20:11;100422.75;;;17.34;62.30
11223;BME280;5668;52.012;8.724;2023-05-09T01:22:45;100419.16;;;17.35;61.34
11223;BME280;5668;52.012;8.724;2023-05-09T01:25:35;100417.09;;;17.29;61.95
11223;BME280;5668;52.012;8.724;2023-05-09T01:28:12;100418.25;;;17.27;62.24
11223;BME280;5668;52.012;8.724;2023-05-09T01:30:44;100405.25;;;17.25;61.79
11223;BME280;5668;52.012;8.724;2023-05-09T01:33:15;100400.59;;;17.19;61.37
11223;BME280;5668;52.012;8.724;2023-05-09T01:35:45;100402.53;;;17.17;61.84
11223;BME280;5668;52.012;8.724;2023-05-09T01:38:17;100397.19;;;17.09;61.76
11223;BME280;5668;52.012;8.724;2023-05-09T01:40:48;100404.69;;;17.04;62.41
11223;BME280;5668;52.012;8.724;2023-05-09T01:43:19;100390.03;;;17.01;62.45
11223;BME280;5668;52.012;8.724;2023-05-09T01:45:48;100392.53;;;17.03;62.45
11223;BME280;5668;52.012;8.724;2023-05-09T01:48:17;100392.53;;;17.03;62.31
11223;BME280;5668;52.012;8.724;2023-05-09T01:50:46;100386.19;;;16.96;62.74
11223;BME280;5668;52.012;8.724;2023-05-09T01:53:16;100395.59;;;16.98;62.65
11223;BME280;5668;52.012;8.724;2023-05-09T01:55:43;100391.13;;;16.99;62.48
11223;BME280;5668;52.012;8.724;2023-05-09T01:58:12;100388.81;;;16.96;62.47
11223;BME280;5668;52.012;8.724;2023-05-09T02:00:40;100392.41;;;16.95;62.64
11223;BME280;5668;52.012;8.724;2023-05-09T02:03:09;100388.13;;;16.94;62.73
11223;BME280;5668;52.012;8.724;2023-05-09T02:05:37;100386.47;;;16.93;62.40
11223;BME280;5668;52.012;8.724;2023-05-09T02:08:06;100380.84;;;16.88;62.24
11223;BME280;5668;52.012;8.724;2023-05-09T02:10:35;100375.22;;;16.83;62.66
11223;BME280;5668;52.012;8.724;2023-05-09T02:13:03;100377.16;;;16.81;62.89
11223;BME280;5668;52.012;8.724;2023-05-09T02:15:31;100380.47;;;16.83;62.81
11223;BME280;5668;52.012;8.724;2023-05-09T02:17:58;100378.81;;;16.82;62.56
11223;BME280;5668;52.012;8.724;2023-05-09T02:20:27;100364.88;;;16.81;62.80
11223;BME280;5668;52.012;8.724;2023-05-09T02:22:55;100373.00;;;16.78;62.88
11223;BME280;5668;52.012;8.724;2023-05-09T02:25:22;100368.72;;;16.77;62.73
11223;BME280;5668;52.012;8.724;2023-05-09T02:27:51;100372.50;;;16.75;62.64
11223;BME280;5668;52.012;8.724;2023-05-09T02:30:22;100369.75;;;16.67;62.48
11223;BME280;5668;52.012;8.724;2023-05-09T02:32:52;100370.59;;;16.57;63.09
11223;BME280;5668;52.012;8.724;2023-05-09T02:35:22;100364.28;;;16.50;62.65
11223;BME280;5668;52.012;8.724;2023-05-09T02:37:53;100360.00;;;16.49;62.86
11223;BME280;5668;52.012;8.724;2023-05-09T02:40:21;100360.13;;;16.48;63.31
11223;BME280;5668;52.012;8.724;2023-05-09T02:42:49;100363.88;;;16.45;63.41
11223;BME280;5668;52.012;8.724;2023-05-09T02:45:16;100363.47;;;16.40;63.00
11223;BME280;5668;52.012;8.724;2023-05-09T02:47:43;100359.09;;;16.31;63.21
11223;BME280;5668;52.012;8.724;2023-05-09T02:50:11;100358.28;;;16.31;63.47
11223;BME280;5668;52.012;8.724;2023-05-09T02:52:39;100360.44;;;16.35;63.34
11223;BME280;5668;52.012;8.724;2023-05-09T02:55:09;100352.47;;;16.27;63.10
11223;BME280;5668;52.012;8.724;2023-05-09T02:57:36;100358.81;;;16.24;62.94
11223;BME280;5668;52.012;8.724;2023-05-09T03:00:06;100357.19;;;16.14;63.50
11223;BME280;5668;52.012;8.724;2023-05-09T03:02:34;100351.41;;;16.10;63.71
11223;BME280;5668;52.012;8.724;2023-05-09T03:05:01;100348.91;;;16.09;63.50
11223;BME280;5668;52.012;8.724;2023-05-09T03:07:29;100349.22;;;16.06;63.26
11223;BME280;5668;52.012;8.724;2023-05-09T03:09:56;100359.31;;;16.01;63.00
11223;BME280;5668;52.012;8.724;2023-05-09T03:12:25;100351.97;;;15.95;63.18
11223;BME280;5668;52.012;8.724;2023-05-09T03:14:52;100352.28;;;15.92;63.27
11223;BME280;5668;52.012;8.724;2023-05-09T03:17:19;100351.97;;;15.95;63.24
11223;BME280;5668;52.012;8.724;2023-05-09T03:19:48;100352.28;;;15.92;63.14
11223;BME280;5668;52.012;8.724;2023-05-09T03:22:15;100343.84;;;15.88;63.23
11223;BME280;5668;52.012;8.724;2023-05-09T03:24:42;100342.88;;;15.89;63.41
11223;BME280;5668;52.012;8.724;2023-05-09T03:27:09;100346.59;;;15.86;63.53
11223;BME280;5668;52.012;8.724;2023-05-09T03:29:38;100339.75;;;15.85;63.10
11223;BME280;5668;52.012;8.724;2023-05-09T03:32:05;100339.31;;;15.80;62.93
11223;BME280;5668;52.012;8.724;2023-05-09T03:34:32;100349.25;;;15.77;63.00
11223;BME280;5668;52.012;8.724;2023-05-09T03:37:00;100335.72;;;15.72;62.72
11223;BME280;5668;52.012;8.724;2023-05-09T03:39:27;100337.25;;;15.65;63.30
11223;BME280;5668;52.012;8.724;2023-05-09T03:41:55;100336.44;;;15.64;63.37
11223;BME280;5668;52.012;8.724;2023-05-09T03:44:22;100328.44;;;15.66;63.49
11223;BME280;5668;52.012;8.724;2023-05-09T03:46:50;100335.75;;;15.62;63.04
11223;BME280;5668;52.012;8.724;2023-05-09T03:49:17;100327.19;;;15.60;62.99
11223;BME280;5668;52.012;8.724;2023-05-09T03:51:45;100333.28;;;15.61;63.10
11223;BME280;5668;52.012;8.724;2023-05-09T03:54:12;100325.53;;;15.59;63.07
11223;BME280;5668;52.012;8.724;2023-05-09T03:56:39;100325.84;;;15.56;62.75
11223;BME280;5668;52.012;8.724;2023-05-09T03:59:06;100322.50;;;15.64;62.96
11223;BME280;5668;52.012;8.724;2023-05-09T04:01:33;100318.91;;;15.65;62.19
11223;BME280;5668;52.012;8.724;2023-05-09T04:04:02;100316.47;;;15.63;62.48
11223;BME280;5668;52.012;8.724;2023-05-09T04:06:29;100321.69;;;15.63;62.62
11223;BME280;5668;52.012;8.724;2023-05-09T04:08:58;100309.56;;;15.62;62.16
11223;BME280;5668;52.012;8.724;2023-05-09T04:11:25;100317.25;;;15.64;62.72
11223;BME280;5668;52.012;8.724;2023-05-09T04:13:54;100317.00;;;15.57;62.16
11223;BME280;5668;52.012;8.724;2023-05-09T04:16:21;100323.75;;;15.60;62.26
11223;BME280;5668;52.012;8.724;2023-05-09T04:18:48;100320.59;;;15.56;62.77
11223;BME280;5668;52.012;8.724;2023-05-09T04:21:17;100311.75;;;15.57;62.37
11223;BME280;5668;52.012;8.724;2023-05-09T04:23:44;100317.16;;;15.56;62.66
11223;BME280;5668;52.012;8.724;2023-05-09T04:26:11;100313.94;;;15.52;62.49
11223;BME280;5668;52.012;8.724;2023-05-09T04:28:39;100313.94;;;15.52;62.64
11223;BME280;5668;52.012;8.724;2023-05-09T04:31:06;100321.28;;;15.58;62.78
11223;BME280;5668;52.012;8.724;2023-05-09T04:33:33;100309.13;;;15.57;62.84
11223;BME280;5668;52.012;8.724;2023-05-09T04:36:03;100322.22;;;15.57;62.99
11223;BME280;5668;52.012;8.724;2023-05-09T04:38:32;100316.72;;;15.60;63.19
11223;BME280;5668;52.012;8.724;2023-05-09T04:40:59;100309.25;;;15.65;63.15
11223;BME280;5668;52.012;8.724;2023-05-09T04:43:26;100307.34;;;15.67;63.29
11223;BME280;5668;52.012;8.724;2023-05-09T04:45:54;100302.78;;;15.69;63.38
11223;BME280;5668;52.012;8.724;2023-05-09T04:48:22;100302.09;;;15.67;63.69
11223;BME280;5668;52.012;8.724;2023-05-09T04:50:49;100300.75;;;15.63;64.00
11223;BME280;5668;52.012;8.724;2023-05-09T04:53:16;100295.19;;;15.66;64.06
11223;BME280;5668;52.012;8.724;2023-05-09T04:55:44;100295.19;;;15.66;64.23
11223;BME280;5668;52.012;8.724;2023-05-09T04:58:12;100293.97;;;15.70;64.87
11223;BME280;5668;52.012;8.724;2023-05-09T05:00:39;100297.94;;;15.74;64.53
11223;BME280;5668;52.012;8.724;2023-05-09T05:03:06;100295.19;;;15.76;64.97
11223;BME280;5668;52.012;8.724;2023-05-09T05:05:33;100291.63;;;15.77;65.15
11223;BME280;5668;52.012;8.724;2023-05-09T05:08:01;100286.91;;;15.80;65.07
11223;BME280;5668;52.012;8.724;2023-05-09T05:10:28;100287.03;;;15.79;65.62
11223;BME280;5668;52.012;8.724;2023-05-09T05:12:57;100274.50;;;15.82;65.79
11223;BME280;5668;52.012;8.724;2023-05-09T05:15:24;100269.13;;;15.84;66.12
11223;BME280;5668;52.012;8.724;2023-05-09T05:17:52;100273.22;;;15.86;66.27
11223;BME280;5668;52.012;8.724;2023-05-09T05:20:20;100277.50;;;15.87;66.48
11223;BME280;5668;52.012;8.724;2023-05-09T05:22:47;100276.41;;;15.90;67.02
11223;BME280;5668;52.012;8.724;2023-05-09T05:25:15;100276.25;;;15.92;67.29
11223;BME280;5668;52.012;8.724;2023-05-09T05:27:43;100275.97;;;15.95;67.02
11223;BME280;5668;52.012;8.724;2023-05-09T05:30:13;100276.38;;;16.00;66.87
11223;BME280;5668;52.012;8.724;2023-05-09T05:32:41;100270.00;;;16.02;66.96
11223;BME280;5668;52.012;8.724;2023-05-09T05:35:09;100282.16;;;16.03;67.35
11223;BME280;5668;52.012;8.724;2023-05-09T05:37:37;100269.47;;;16.08;67.15
11223;BME280;5668;52.012;8.724;2023-05-09T05:40:06;100277.16;;;16.10;67.21
11223;BME280;5668;52.012;8.724;2023-05-09T05:42:35;100271.91;;;16.10;67.66
11223;BME280;5668;52.012;8.724;2023-05-09T05:45:02;100262.81;;;16.14;67.08
11223;BME280;5668;52.012;8.724;2023-05-09T05:47:32;100265.44;;;16.14;67.46
11223;BME280;5668;52.012;8.724;2023-05-09T05:50:00;100262.81;;;16.14;67.80
11223;BME280;5668;52.012;8.724;2023-05-09T05:52:28;100262.81;;;16.14;67.43
11223;BME280;5668;52.012;8.724;2023-05-09T05:54:55;100254.94;;;16.14;67.68
11223;BME280;5668;52.012;8.724;2023-05-09T05:57:23;100262.94;;;16.12;67.71
11223;BME280;5668;52.012;8.724;2023-05-09T05:59:50;100254.94;;;16.14;67.94
11223;BME280;5668;52.012;8.724;2023-05-09T06:02:18;100259.22;;;16.15;68.24
11223;BME280;5668;52.012;8.724;2023-05-09T06:04:46;100248.56;;;16.16;68.39
11223;BME280;5668;52.012;8.724;2023-05-09T06:07:13;100244.84;;;16.19;69.10
11223;BME280;5668;52.012;8.724;2023-05-09T06:09:41;100241.94;;;16.22;68.98
11223;BME280;5668;52.012;8.724;2023-05-09T06:12:08;100237.34;;;16.24;69.28
11223;BME280;5668;52.012;8.724;2023-05-09T06:14:36;100233.47;;;16.28;69.55
11223;BME280;5668;52.012;8.724;2023-05-09T06:17:04;100224.66;;;16.29;69.84
11223;BME280;5668;52.012;8.724;2023-05-09T06:19:31;100226.97;;;16.32;70.13
11223;BME280;5668;52.012;8.724;2023-05-09T06:21:59;100222.25;;;16.36;70.35
11223;BME280;5668;52.012;8.724;2023-05-09T06:24:26;100222.13;;;16.37;70.14
11223;BME280;5668;52.012;8.724;2023-05-09T06:26:54;100216.88;;;16.37;70.06
11223;BME280;5668;52.012;8.724;2023-05-09T06:29:21;100218.53;;;16.38;70.29
11223;BME280;5668;52.012;8.724;2023-05-09T06:31:48;100220.16;;;16.39;70.51
11223;BME280;5668;52.012;8.724;2023-05-09T06:34:15;100222.50;;;16.42;70.73
11223;BME280;5668;52.012;8.724;2023-05-09T06:36:42;100210.06;;;16.44;70.73
11223;BME280;5668;52.012;8.724;2023-05-09T06:39:11;100218.47;;;16.48;70.85
11223;BME280;5668;52.012;8.724;2023-05-09T06:41:38;100212.09;;;16.50;71.14
11223;BME280;5668;52.012;8.724;2023-05-09T06:44:06;100199.34;;;16.55;71.18
11223;BME280;5668;52.012;8.724;2023-05-09T06:46:33;100192.56;;;16.62;71.42
11223;BME280;5668;52.012;8.724;2023-05-09T06:49:00;100188.53;;;16.68;71.84
11223;BME280;5668;52.012;8.724;2023-05-09T06:51:27;100188.44;;;16.78;72.01
11223;BME280;5668;52.012;8.724;2023-05-09T06:53:56;100186.22;;;16.83;72.00
11223;BME280;5668;52.012;8.724;2023-05-09T06:56:25;100189.44;;;16.94;72.14
11223;BME280;5668;52.012;8.724;2023-05-09T06:58:52;100184.09;;;17.04;72.20
11223;BME280;5668;52.012;8.724;2023-05-09T07:01:20;100182.19;;;17.14;72.15
11223;BME280;5668;52.012;8.724;2023-05-09T07:03:47;100173.13;;;17.26;72.23
11223;BME280;5668;52.012;8.724;2023-05-09T07:06:14;100173.84;;;17.36;71.68
11223;BME280;5668;52.012;8.724;2023-05-09T07:08:41;100174.25;;;17.50;72.04
11223;BME280;5668;52.012;8.724;2023-05-09T07:11:09;100166.09;;;17.61;72.02
11223;BME280;5668;52.012;8.724;2023-05-09T07:13:37;100160.47;;;17.73;71.81
11223;BME280;5668;52.012;8.724;2023-05-09T07:16:05;100160.66;;;17.80;72.05
11223;BME280;5668;52.012;8.724;2023-05-09T07:18:32;100155.25;;;17.90;71.87
11223;BME280;5668;52.012;8.724;2023-05-09T07:20:59;100155.97;;;18.00;71.83
11223;BME280;5668;52.012;8.724;2023-05-09T07:23:26;100148.63;;;18.11;72.01
11223;BME280;5668;52.012;8.724;2023-05-09T07:25:57;100141.41;;;18.22;72.00
11223;BME280;5668;52.012;8.724;2023-05-09T07:28:25;100147.22;;;18.33;71.85
11223;BME280;5668;52.012;8.724;2023-05-09T07:30:54;100134.88;;;18.42;71.83
11223;BME280;5668;52.012;8.724;2023-05-09T07:33:22;100142.47;;;18.53;71.80
11223;BME280;5668;52.012;8.724;2023-05-09T07:35:49;100142.19;;;18.64;71.84
11223;BME280;5668;52.012;8.724;2023-05-09T07:38:18;100129.69;;;18.74;72.05
11223;BME280;5668;52.012;8.724;2023-05-09T07:40:45;100123.75;;;18.80;72.21
11223;BME280;5668;52.012;8.724;2023-05-09T07:43:12;100136.59;;;18.91;72.31
11223;BME280;5668;52.012;8.724;2023-05-09T07:45:39;100121.47;;;19.02;72.42
11223;BME280;5668;52.012;8.724;2023-05-09T07:48:08;100122.91;;;19.12;72.30
11223;BME280;5668;52.012;8.724;2023-05-09T07:50:35;100122.06;;;19.20;72.20
11223;BME280;5668;52.012;8.724;2023-05-09T07:53:02;100107.59;;;19.32;71.61
11223;BME280;5668;52.012;8.724;2023-05-09T07:55:29;100109.50;;;19.46;70.69
11223;BME280;5668;52.012;8.724;2023-05-09T07:57:57;100107.34;;;19.58;70.19
11223;BME280;5668;52.012;8.724;2023-05-09T08:00:24;100108.31;;;19.65;70.33
11223;BME280;5668;52.012;8.724;2023-05-09T08:02:51;100102.84;;;19.75;70.32
11223;BME280;5668;52.012;8.724;2023-05-09T08:05:20;100101.00;;;19.83;69.68
11223;BME280;5668;52.012;8.724;2023-05-09T08:07:48;100095.69;;;19.91;70.56
11223;BME280;5668;52.012;8.724;2023-05-09T08:10:16;100099.03;;;20.08;70.90
11223;BME280;5668;52.012;8.724;2023-05-09T08:12:43;100090.09;;;20.17;70.91
11223;BME280;5668;52.012;8.724;2023-05-09T08:15:11;100092.16;;;20.30;71.52
11223;BME280;5668;52.012;8.724;2023-05-09T08:17:38;100082.59;;;20.37;71.30
11223;BME280;5668;52.012;8.724;2023-05-09T08:20:07;100086.34;;;20.42;70.38
11223;BME280;5668;52.012;8.724;2023-05-09T08:22:39;100081.63;;;20.53;69.44
11223;BME280;5668;52.012;8.724;2023-05-09T08:25:07;100079.94;;;20.60;68.93
11223;BME280;5668;52.012;8.724;2023-05-09T08:27:34;100080.16;;;20.73;68.19
11223;BME280;5668;52.012;8.724;2023-05-09T08:30:02;100079.88;;;20.82;67.06
11223;BME280;5668;52.012;8.724;2023-05-09T08:32:29;100075.25;;;20.84;66.21
11223;BME280;5668;52.012;8.724;2023-05-09T08:34:56;100071.63;;;20.85;66.21
11223;BME280;5668;52.012;8.724;2023-05-09T08:37:23;100066.16;;;20.87;66.35
11223;BME280;5668;52.012;8.724;2023-05-09T08:39:53;100061.88;;;20.86;66.63
11223;BME280;5668;52.012;8.724;2023-05-09T08:42:21;100062.03;;;20.84;66.16
11223;BME280;5668;52.012;8.724;2023-05-09T08:44:49;100056.09;;;20.82;66.55
11223;BME280;5668;52.012;8.724;2023-05-09T08:47:16;100060.59;;;20.82;66.46
11223;BME280;5668;52.012;8.724;2023-05-09T08:49:46;100063.75;;;20.77;66.18
11223;BME280;5668;52.012;8.724;2023-05-09T08:52:14;100063.31;;;20.74;66.16
11223;BME280;5668;52.012;8.724;2023-05-09T08:54:42;100056.91;;;20.68;66.41
11223;BME280;5668;52.012;8.724;2023-05-09T08:57:11;100055.91;;;20.69;66.56
11223;BME280;5668;52.012;8.724;2023-05-09T08:59:41;100048.16;;;20.68;66.90
11223;BME280;5668;52.012;8.724;2023-05-09T09:02:11;100038.13;;;20.63;67.11
11223;BME280;5668;52.012;8.724;2023-05-09T09:04:40;100041.59;;;20.64;67.20
11223;BME280;5668;52.012;8.724;2023-05-09T09:07:07;100042.41;;;20.64;67.56
11223;BME280;5668;52.012;8.724;2023-05-09T09:09:35;100033.03;;;20.62;68.37
11223;BME280;5668;52.012;8.724;2023-05-09T09:12:06;100040.66;;;20.57;68.42
11223;BME280;5668;52.012;8.724;2023-05-09T09:14:38;100034.03;;;20.61;68.54
11223;BME280;5668;52.012;8.724;2023-05-09T09:17:07;100030.94;;;20.57;68.98
11223;BME280;5668;52.012;8.724;2023-05-09T09:19:40;100026.16;;;20.53;68.71
11223;BME280;5668;52.012;8.724;2023-05-09T09:22:12;100023.19;;;20.56;68.48
11223;BME280;5668;52.012;8.724;2023-05-09T09:24:41;100028.47;;;20.56;68.77
11223;BME280;5668;52.012;8.724;2023-05-09T09:27:08;100023.53;;;20.53;69.12
11223;BME280;5668;52.012;8.724;2023-05-09T09:29:37;100017.25;;;20.54;69.50
11223;BME280;5668;52.012;8.724;2023-05-09T09:32:05;100012.63;;;20.56;69.64
11223;BME280;5668;52.012;8.724;2023-05-09T09:34:32;100020.00;;;20.60;69.40
11223;BME280;5668;52.012;8.724;2023-05-09T09:37:00;100007.00;;;20.59;68.68
11223;BME280;5668;52.012;8.724;2023-05-09T09:39:27;99998.41;;;20.57;68.79
11223;BME280;5668;52.012;8.724;2023-05-09T09:41:54;99992.16;;;20.58;68.45
11223;BME280;5668;52.012;8.724;2023-05-09T09:44:22;99990.22;;;20.52;67.40
11223;BME280;5668;52.012;8.724;2023-05-09T09:46:53;99990.03;;;20.53;67.42
11223;BME280;5668;52.012;8.724;2023-05-09T09:49:23;99984.94;;;20.52;67.39
11223;BME280;5668;52.012;8.724;2023-05-09T09:51:51;99990.84;;;20.54;67.24
11223;BME280;5668;52.012;8.724;2023-05-09T09:54:18;99984.56;;;20.55;67.43
11223;BME280;5668;52.012;8.724;2023-05-09T09:56:47;99981.50;;;20.66;67.88
11223;BME280;5668;52.012;8.724;2023-05-09T09:59:16;99975.31;;;20.73;67.69
11223;BME280;5668;52.012;8.724;2023-05-09T10:01:56;99970.13;;;20.80;67.09
11223;BME280;5668;52.012;8.724;2023-05-09T10:04:30;99974.75;;;20.78;67.08
11223;BME280;5668;52.012;8.724;2023-05-09T10:06:58;99965.13;;;20.85;67.13
11223;BME280;5668;52.012;8.724;2023-05-09T10:09:26;99974.50;;;20.88;66.76
11223;BME280;5668;52.012;8.724;2023-05-09T10:11:55;99972.22;;;20.84;65.14
11223;BME280;5668;52.012;8.724;2023-05-09T10:14:24;99964.75;;;20.88;65.54
11223;BME280;5668;52.012;8.724;2023-05-09T10:16:55;99958.19;;;20.99;66.24
11223;BME280;5668;52.012;8.724;2023-05-09T10:19:25;99958.91;;;21.07;66.74
11223;BME280;5668;52.012;8.724;2023-05-09T10:21:56;99944.34;;;21.11;66.23
11223;BME280;5668;52.012;8.724;2023-05-09T10:24:27;99948.75;;;21.19;65.48
11223;BME280;5668;52.012;8.724;2023-05-09T10:27:01;99935.22;;;21.29;64.67
11223;BME280;5668;52.012;8.724;2023-05-09T10:29:33;99937.31;;;21.33;64.57
11223;BME280;5668;52.012;8.724;2023-05-09T10:32:10;99939.03;;;21.41;64.24
11223;BME280;5668;52.012;8.724;2023-05-09T10:34:43;99932.34;;;21.45;64.45
11223;BME280;5668;52.012;8.724;2023-05-09T10:37:14;99928.78;;;21.52;63.79
11223;BME280;5668;52.012;8.724;2023-05-09T10:39:42;99920.91;;;21.59;63.53
11223;BME280;5668;52.012;8.724;2023-05-09T10:42:10;99913.66;;;21.68;64.12
11223;BME280;5668;52.012;8.724;2023-05-09T10:44:39;99916.13;;;21.69;62.88
11223;BME280;5668;52.012;8.724;2023-05-09T10:47:08;99915.50;;;21.67;62.49
11223;BME280;5668;52.012;8.724;2023-05-09T10:49:38;99915.13;;;21.70;62.44
11223;BME280;5668;52.012;8.724;2023-05-09T10:52:06;99909.72;;;21.78;61.53
11223;BME280;5668;52.012;8.724;2023-05-09T10:54:35;99908.31;;;21.82;62.28
11223;BME280;5668;52.012;8.724;2023-05-09T10:57:04;99910.59;;;21.85;62.80
11223;BME280;5668;52.012;8.724;2023-05-09T10:59:36;99897.19;;;21.87;62.06
11223;BME280;5668;52.012;8.724;2023-05-09T11:02:04;99895.59;;;21.92;61.63
11223;BME280;5668;52.012;8.724;2023-05-09T11:04:33;99886.66;;;21.93;61.43
11223;BME280;5668;52.012;8.724;2023-05-09T11:07:00;99883.81;;;21.95;61.99
11223;BME280;5668;52.012;8.724;2023-05-09T11:09:30;99874.69;;;21.97;62.02
11223;BME280;5668;52.012;8.724;2023-05-09T11:12:07;99873.69;;;21.98;61.80
11223;BME280;5668;52.012;8.724;2023-05-09T11:14:39;99869.03;;;22.00;61.92
11223;BME280;5668;52.012;8.724;2023-05-09T11:17:08;99863.97;;;22.06;62.16
11223;BME280;5668;52.012;8.724;2023-05-09T11:22:21;99858.13;;;22.10;61.19
11223;BME280;5668;52.012;8.724;2023-05-09T11:24:50;99848.56;;;22.16;61.92
11223;BME280;5668;52.012;8.724;2023-05-09T11:27:19;99847.16;;;22.20;60.96
11223;BME280;5668;52.012;8.724;2023-05-09T11:29:50;99843.69;;;22.19;59.46
11223;BME280;5668;52.012;8.724;2023-05-09T11:32:18;99839.22;;;22.20;59.98
11223;BME280;5668;52.012;8.724;2023-05-09T11:34:47;99836.84;;;22.25;59.62
11223;BME280;5668;52.012;8.724;2023-05-09T11:37:16;99829.94;;;22.30;59.79
11223;BME280;5668;52.012;8.724;2023-05-09T11:39:58;99830.78;;;22.37;60.50
11223;BME280;5668;52.012;8.724;2023-05-09T11:42:27;99834.47;;;22.43;60.71
11223;BME280;5668;52.012;8.724;2023-05-09T11:44:56;99836.13;;;22.44;60.14
11223;BME280;5668;52.012;8.724;2023-05-09T11:47:24;99823.88;;;22.43;61.00
11223;BME280;5668;52.012;8.724;2023-05-09T11:49:55;99829.81;;;22.45;59.37
11223;BME280;5668;52.012;8.724;2023-05-09T11:52:22;99813.47;;;22.42;59.04
11223;BME280;5668;52.012;8.724;2023-05-09T11:54:50;99811.28;;;22.45;59.26
11223;BME280;5668;52.012;8.724;2023-05-09T11:57:18;99806.81;;;22.52;60.60
11223;BME280;5668;52.012;8.724;2023-05-09T11:59:45;99807.19;;;22.49;57.63
11223;BME280;5668;52.012;8.724;2023-05-09T12:02:14;99796.84;;;22.54;57.86
11223;BME280;5668;52.012;8.724;2023-05-09T12:04:41;99792.97;;;22.57;57.51
11223;BME280;5668;52.012;8.724;2023-05-09T12:07:11;99788.75;;;22.62;58.01
11223;BME280;5668;52.012;8.724;2023-05-09T12:09:38;99786.50;;;22.72;59.01
11223;BME280;5668;52.012;8.724;2023-05-09T12:12:09;99780.06;;;22.82;59.60
11223;BME280;5668;52.012;8.724;2023-05-09T12:14:38;99789.47;;;22.84;57.36
11223;BME280;5668;52.012;8.724;2023-05-09T12:17:06;99776.41;;;22.89;57.15
11223;BME280;5668;52.012;8.724;2023-05-09T12:19:34;99773.59;;;22.97;58.05
11223;BME280;5668;52.012;8.724;2023-05-09T12:22:02;99770.94;;;23.04;58.32
11223;BME280;5668;52.012;8.724;2023-05-09T12:24:34;99774.41;;;23.11;60.00
11223;BME280;5668;52.012;8.724;2023-05-09T12:27:02;99771.78;;;23.17;60.06
11223;BME280;5668;52.012;8.724;2023-05-09T12:29:33;99763.63;;;23.26;60.12
11223;BME280;5668;52.012;8.724;2023-05-09T12:32:01;99756.91;;;23.30;58.80
11223;BME280;5668;52.012;8.724;2023-05-09T12:34:28;99757.13;;;23.28;57.50
11223;BME280;5668;52.012;8.724;2023-05-09T12:36:56;99759.97;;;23.33;58.30
11223;BME280;5668;52.012;8.724;2023-05-09T12:39:25;99755.47;;;23.40;57.26
11223;BME280;5668;52.012;8.724;2023-05-09T12:41:53;99742.66;;;23.37;55.83
11223;BME280;5668;52.012;8.724;2023-05-09T12:44:21;99752.19;;;23.38;56.84
11223;BME280;5668;52.012;8.724;2023-05-09T12:46:59;99742.22;;;23.40;56.96
11223;BME280;5668;52.012;8.724;2023-05-09T12:49:27;99741.19;;;23.41;56.99
11223;BME280;5668;52.012;8.724;2023-05-09T12:51:57;99740.56;;;23.46;57.42
11223;BME280;5668;52.012;8.724;2023-05-09T12:54:26;99729.19;;;23.52;57.82
11223;BME280;5668;52.012;8.724;2023-05-09T12:56:56;99730.41;;;23.49;56.82
11223;BME280;5668;52.012;8.724;2023-05-09T12:59:25;99716.97;;;23.51;56.33
11223;BME280;5668;52.012;8.724;2023-05-09T13:01:55;99723.28;;;23.57;56.43
11223;BME280;5668;52.012;8.724;2023-05-09T13:04:23;99722.25;;;23.64;56.97
11223;BME280;5668;52.012;8.724;2023-05-09T13:06:51;99715.09;;;23.65;56.22
11223;BME280;5668;52.012;8.724;2023-05-09T13:09:21;99715.31;;;23.57;54.35
11223;BME280;5668;52.012;8.724;2023-05-09T13:11:49;99715.72;;;23.53;54.88